Time;durP1;ratioP1;P1;durP2;ratioP2;P2;SDS_P1;SDS_P2;PMS_P1;PMS_P2;Temp;Humidity;BMP_temperature;BMP_pressure;BME280_temperature;BME280_humidity;BME280_pressure;Samples;Min_cycle;Max_cycle;Signal;HPM_P1;HPM_P2
2022/06/09 00:01:36;;;;;;;0.60;0.53;;;19.60;99.90;;;;;;5017917;28;20454;-81
2022/06/09 00:04:10;;;;;;;0.50;0.50;;;19.70;99.90;;;;;;5021989;28;20851;-81
2022/06/09 00:06:43;;;;;;;0.80;0.40;;;19.60;99.90;;;;;;5027182;28;20447;-81
2022/06/09 00:09:11;;;;;;;0.60;0.60;;;19.60;99.90;;;;;;5030352;28;20508;-80
2022/06/09 00:11:44;;;;;;;0.47;0.47;;;19.60;99.90;;;;;;5024599;28;20528;-82
2022/06/09 00:14:12;;;;;;;0.50;0.50;;;19.70;99.90;;;;;;5025826;28;20481;-82
2022/06/09 00:16:41;;;;;;;0.50;0.50;;;19.70;99.90;;;;;;5025592;28;20463;-83
2022/06/09 00:19:10;;;;;;;1.07;0.40;;;19.80;99.90;;;;;;5021601;28;20463;-85
2022/06/09 00:21:39;;;;;;;0.50;0.40;;;19.70;99.90;;;;;;5028953;28;20471;-83
2022/06/09 00:24:07;;;;;;;0.83;0.47;;;19.80;99.90;;;;;;5028455;28;20464;-83
2022/06/09 00:26:36;;;;;;;0.50;0.50;;;19.70;99.90;;;;;;5023419;28;20463;-83
2022/06/09 00:29:06;;;;;;;0.50;0.50;;;19.70;99.90;;;;;;5027414;28;20472;-83
2022/06/09 00:31:34;;;;;;;0.67;0.50;;;19.60;99.90;;;;;;5027547;28;20546;-84
2022/06/09 00:34:03;;;;;;;0.80;0.50;;;19.60;99.90;;;;;;5025659;28;20478;-79
2022/06/09 00:36:31;;;;;;;1.00;0.70;;;19.60;99.90;;;;;;5018942;28;20459;-81
2022/06/09 00:38:59;;;;;;;2.70;0.57;;;19.50;99.90;;;;;;5034018;28;20453;-82
2022/06/09 00:41:29;;;;;;;0.50;0.50;;;19.60;99.90;;;;;;5018574;28;21009;-82
2022/06/09 00:44:16;;;;;;;0.53;0.50;;;19.50;99.90;;;;;;5019844;28;20496;-83
2022/06/09 00:46:45;;;;;;;0.50;0.50;;;19.60;99.90;;;;;;5021097;28;20466;-82
2022/06/09 00:49:19;;;;;;;0.43;0.40;;;19.50;99.90;;;;;;5021672;28;20476;-82
2022/06/09 00:51:54;;;;;;;0.80;0.80;;;19.50;99.90;;;;;;5023609;28;20451;-82
2022/06/09 00:54:26;;;;;;;0.40;0.40;;;19.40;99.90;;;;;;5023738;28;20471;-81
2022/06/09 00:56:59;;;;;;;0.70;0.50;;;19.40;99.90;;;;;;5036506;28;20453;-82
2022/06/09 00:59:31;;;;;;;0.67;0.60;;;19.40;99.90;;;;;;5022479;28;20463;-82
2022/06/09 01:02:01;;;;;;;0.40;0.40;;;19.40;99.90;;;;;;5020901;28;20468;-82
2022/06/09 01:04:31;;;;;;;0.40;0.40;;;19.40;99.90;;;;;;5021471;28;20476;-82
2022/06/09 01:07:06;;;;;;;1.23;0.50;;;19.40;99.90;;;;;;5020009;28;20461;-82
2022/06/09 01:09:35;;;;;;;0.50;0.50;;;19.40;99.90;;;;;;5019114;28;20473;-82
2022/06/09 01:12:22;;;;;;;0.43;0.43;;;19.40;99.90;;;;;;5018729;28;21030;-83
2022/06/09 01:14:53;;;;;;;0.40;0.40;;;19.30;99.90;;;;;;5018182;28;20464;-81
2022/06/09 01:17:30;;;;;;;0.40;0.40;;;19.30;99.90;;;;;;5009027;28;21383;-82
2022/06/09 01:20:09;;;;;;;0.50;0.50;;;19.30;99.90;;;;;;5020046;28;20472;-82
2022/06/09 01:23:26;;;;;;;0.50;0.50;;;19.30;99.90;;;;;;5019913;28;20491;-83
2022/06/09 01:26:34;;;;;;;0.50;0.50;;;19.20;99.90;;;;;;5024162;28;20508;-80
2022/06/09 01:29:25;;;;;;;0.60;0.50;;;19.20;99.90;;;;;;5021032;28;20479;-81
2022/06/09 01:32:00;;;;;;;0.50;0.50;;;19.20;99.90;;;;;;5023609;28;20464;-82
2022/06/09 01:34:36;;;;;;;0.70;0.70;;;19.20;99.90;;;;;;5021629;28;20990;-81
2022/06/09 01:37:11;;;;;;;0.50;0.50;;;19.20;1.00;;;;;;5022342;28;20853;-81
2022/06/09 01:39:49;;;;;;;0.40;0.40;;;19.10;1.00;;;;;;5022515;28;20495;-81
2022/06/09 01:42:30;;;;;;;0.40;0.40;;;19.10;1.00;;;;;;5024347;28;20535;-81
2022/06/09 01:45:02;;;;;;;0.50;0.50;;;19.20;1.00;;;;;;5020705;28;20840;-81
2022/06/09 01:47:40;;;;;;;0.60;0.50;;;19.10;1.00;;;;;;5014240;28;20457;-81
2022/06/09 01:50:13;;;;;;;1.13;0.43;;;19.10;1.00;;;;;;5024173;28;20483;-80
2022/06/09 01:52:44;;;;;;;0.97;0.57;;;19.10;1.00;;;;;;5017632;28;20550;-80
2022/06/09 01:55:17;;;;;;;0.50;0.50;;;19.00;1.00;;;;;;5018072;28;20456;-81
2022/06/09 01:57:51;;;;;;;1.07;0.50;;;19.10;1.00;;;;;;5017137;28;20449;-81
2022/06/09 02:00:21;;;;;;;0.47;0.47;;;19.10;1.00;;;;;;5022801;28;20948;-82
2022/06/09 02:02:54;;;;;;;0.40;0.40;;;19.10;1.00;;;;;;5021237;28;20486;-82
2022/06/09 02:05:26;;;;;;;0.47;0.47;;;19.10;1.00;;;;;;5017321;28;20470;-82
2022/06/09 02:07:56;;;;;;;0.40;0.40;;;19.10;1.00;;;;;;5022705;28;20471;-82
2022/06/09 02:10:32;;;;;;;1.00;0.43;;;19.10;1.00;;;;;;5019780;28;21026;-81
2022/06/09 02:13:04;;;;;;;0.60;0.60;;;19.10;1.00;;;;;;5023338;28;21021;-81
2022/06/09 02:15:36;;;;;;;1.57;0.50;;;19.00;1.00;;;;;;5017168;28;20488;-81
2022/06/09 02:18:08;;;;;;;0.40;0.40;;;19.00;1.00;;;;;;5022766;28;20455;-81
2022/06/09 02:20:41;;;;;;;0.53;0.53;;;19.00;1.00;;;;;;5013285;28;20454;-82
2022/06/09 02:23:11;;;;;;;2.03;0.50;;;19.00;1.00;;;;;;5020350;28;21178;-82
2022/06/09 02:25:40;;;;;;;0.93;0.50;;;19.00;1.00;;;;;;5018485;28;20471;-82
2022/06/09 02:28:09;;;;;;;0.77;0.60;;;18.90;1.00;;;;;;5016654;28;20826;-82
2022/06/09 02:30:38;;;;;;;0.40;0.40;;;18.90;1.00;;;;;;5021569;28;20532;-82
2022/06/09 02:33:23;;;;;;;0.60;0.40;;;19.00;1.00;;;;;;5018090;28;20483;-82
2022/06/09 02:35:52;;;;;;;0.73;0.50;;;18.60;1.00;;;;;;5020977;28;20459;-81
2022/06/09 02:38:22;;;;;;;0.40;0.40;;;18.90;1.00;;;;;;5020501;28;20453;-81
2022/06/09 02:40:51;;;;;;;0.50;0.50;;;18.90;99.90;;;;;;5021284;28;20488;-81
2022/06/09 02:43:19;;;;;;;1.00;0.50;;;18.90;1.00;;;;;;5023217;28;20475;-81
2022/06/09 02:45:48;;;;;;;0.50;0.50;;;18.90;99.90;;;;;;5019437;28;20456;-81
2022/06/09 02:48:17;;;;;;;0.63;0.60;;;18.90;99.90;;;;;;5021018;28;20466;-81
2022/06/09 02:50:47;;;;;;;0.90;0.60;;;18.90;99.90;;;;;;5016936;28;20487;-81
2022/06/09 02:53:16;;;;;;;0.53;0.47;;;18.90;99.90;;;;;;5023406;28;20479;-81
2022/06/09 02:55:44;;;;;;;0.60;0.60;;;18.90;1.00;;;;;;5014825;28;20459;-81
2022/06/09 02:58:13;;;;;;;0.60;0.50;;;19.00;1.00;;;;;;5021880;28;20979;-82
2022/06/09 03:00:42;;;;;;;0.60;0.60;;;18.90;1.00;;;;;;5020820;28;20451;-82
2022/06/09 03:03:14;;;;;;;0.40;0.40;;;18.90;99.90;;;;;;5027964;28;20507;-82
2022/06/09 03:05:42;;;;;;;0.70;0.50;;;18.80;1.00;;;;;;5020008;28;20994;-82
2022/06/09 03:08:12;;;;;;;0.50;0.50;;;18.90;1.00;;;;;;5022485;28;21114;-82
2022/06/09 03:10:41;;;;;;;1.20;0.50;;;18.90;1.00;;;;;;5018134;28;20481;-83
2022/06/09 03:13:09;;;;;;;0.60;0.60;;;18.90;99.90;;;;;;5020231;28;20491;-84
2022/06/09 03:15:37;;;;;;;0.70;0.50;;;18.90;99.90;;;;;;5021435;28;20502;-82
2022/06/09 03:18:05;;;;;;;1.53;0.70;;;18.80;1.00;;;;;;5018841;28;20452;-83
2022/06/09 03:20:34;;;;;;;1.33;0.70;;;18.90;1.00;;;;;;5014726;28;20537;-83
2022/06/09 03:23:03;;;;;;;0.90;0.57;;;18.90;1.00;;;;;;5016367;28;20480;-83
2022/06/09 03:25:33;;;;;;;0.50;0.50;;;18.80;1.00;;;;;;5017583;28;20865;-83
2022/06/09 03:28:01;;;;;;;0.90;0.60;;;18.90;1.00;;;;;;5019336;28;20467;-83
2022/06/09 03:30:32;;;;;;;0.80;0.50;;;18.90;1.00;;;;;;5017566;28;20484;-83
2022/06/09 03:33:01;;;;;;;0.80;0.60;;;18.80;1.00;;;;;;5022997;28;20475;-83
2022/06/09 03:35:31;;;;;;;0.57;0.53;;;18.80;1.00;;;;;;5019118;28;20463;-83
2022/06/09 03:37:59;;;;;;;0.80;0.57;;;18.80;1.00;;;;;;5020327;28;20829;-83
2022/06/09 03:40:29;;;;;;;0.60;0.60;;;18.80;1.00;;;;;;5016771;28;20460;-83
2022/06/09 03:43:02;;;;;;;0.60;0.60;;;18.80;1.00;;;;;;5023522;28;20484;-83
2022/06/09 03:45:32;;;;;;;1.03;0.90;;;18.70;1.00;;;;;;5022517;28;20457;-83
2022/06/09 03:48:00;;;;;;;0.80;0.70;;;18.70;99.90;;;;;;5024787;28;20463;-83
2022/06/09 03:50:31;;;;;;;1.37;0.77;;;18.70;99.90;;;;;;5020265;28;20464;-83
2022/06/09 03:52:59;;;;;;;2.30;0.63;;;18.70;99.90;;;;;;5025291;28;20476;-83
2022/06/09 03:55:28;;;;;;;0.87;0.60;;;18.70;99.90;;;;;;5028294;28;20480;-83
2022/06/09 03:57:57;;;;;;;1.67;0.70;;;18.70;99.90;;;;;;5028004;28;20547;-83
2022/06/09 04:00:28;;;;;;;1.43;0.77;;;18.60;99.90;;;;;;5018025;28;20521;-83
2022/06/09 04:02:56;;;;;;;0.93;0.60;;;18.70;99.90;;;;;;5014692;28;20480;-83
2022/06/09 04:05:25;;;;;;;0.73;0.73;;;18.70;99.90;;;;;;5029319;28;20467;-83
2022/06/09 04:07:54;;;;;;;1.60;0.70;;;18.70;99.90;;;;;;5022256;28;20826;-84
2022/06/09 04:10:25;;;;;;;0.93;0.80;;;18.70;99.90;;;;;;5025570;28;20468;-83
2022/06/09 04:12:53;;;;;;;0.70;0.70;;;18.60;99.90;;;;;;5022734;28;20488;-84
2022/06/09 04:15:23;;;;;;;2.50;0.90;;;18.70;99.90;;;;;;5021387;28;20489;-83
2022/06/09 04:17:52;;;;;;;0.70;0.70;;;18.60;99.90;;;;;;5025432;28;20460;-83
2022/06/09 04:20:23;;;;;;;1.97;0.67;;;18.70;99.90;;;;;;5021464;28;20511;-84
2022/06/09 04:22:51;;;;;;;0.90;0.80;;;18.70;99.90;;;;;;5024516;28;20465;-84
2022/06/09 04:25:21;;;;;;;0.70;0.70;;;18.70;99.90;;;;;;5024953;28;20527;-84
2022/06/09 04:27:50;;;;;;;1.03;0.80;;;18.70;99.90;;;;;;5024545;28;20523;-84
2022/06/09 04:30:19;;;;;;;0.70;0.70;;;18.60;99.90;;;;;;5021371;28;20469;-85
2022/06/09 04:32:55;;;;;;;1.40;0.73;;;18.60;99.90;;;;;;5018484;28;21061;-80
2022/06/09 04:35:24;;;;;;;0.70;0.70;;;18.60;99.90;;;;;;5026761;28;20487;-79
2022/06/09 04:38:01;;;;;;;0.90;0.90;;;18.60;99.90;;;;;;5031449;28;20478;-79
2022/06/09 04:40:32;;;;;;;0.60;0.60;;;18.60;99.90;;;;;;5025996;28;20478;-79
2022/06/09 04:43:01;;;;;;;1.50;1.10;;;18.60;99.90;;;;;;5025933;28;21099;-78
2022/06/09 04:45:30;;;;;;;4.07;1.30;;;18.60;99.90;;;;;;5031499;28;20471;-79
2022/06/09 04:48:00;;;;;;;0.93;0.80;;;18.60;99.90;;;;;;5030954;28;20475;-79
2022/06/09 04:50:28;;;;;;;0.70;0.70;;;18.60;99.90;;;;;;5025971;28;20966;-79
2022/06/09 04:52:57;;;;;;;1.00;0.80;;;18.60;99.90;;;;;;5031943;28;21041;-78
2022/06/09 04:55:26;;;;;;;2.70;1.90;;;18.60;99.90;;;;;;5031371;28;20554;-79
2022/06/09 04:57:55;;;;;;;1.83;1.00;;;18.60;99.90;;;;;;5029888;28;21377;-79
2022/06/09 05:00:23;;;;;;;0.70;0.70;;;18.60;99.90;;;;;;5027130;28;20505;-79
2022/06/09 05:02:52;;;;;;;3.73;0.93;;;18.60;99.90;;;;;;5029232;28;20516;-78
2022/06/09 05:05:23;;;;;;;0.87;0.87;;;18.60;99.90;;;;;;5023229;28;20482;-80
2022/06/09 05:07:52;;;;;;;1.90;1.00;;;18.60;99.90;;;;;;5023786;28;20472;-79
2022/06/09 05:10:20;;;;;;;1.50;1.00;;;18.60;99.90;;;;;;5016730;28;21143;-80
2022/06/09 05:12:49;;;;;;;1.20;1.10;;;18.60;99.90;;;;;;5021596;28;20568;-79
2022/06/09 05:15:19;;;;;;;1.40;0.80;;;18.60;99.90;;;;;;5026131;28;21296;-78
2022/06/09 05:17:48;;;;;;;0.80;0.70;;;18.60;99.90;;;;;;5020724;28;20471;-78
2022/06/09 05:20:18;;;;;;;1.40;1.10;;;18.50;99.90;;;;;;5020363;28;20463;-78
2022/06/09 05:22:48;;;;;;;1.07;1.00;;;18.50;99.90;;;;;;5017871;28;20483;-78
2022/06/09 05:25:16;;;;;;;1.77;0.77;;;18.60;99.90;;;;;;5013281;28;20448;-78
2022/06/09 05:27:45;;;;;;;3.90;2.17;;;18.60;99.90;;;;;;5023569;28;20940;-79
2022/06/09 05:30:24;;;;;;;2.07;1.20;;;18.70;99.90;;;;;;5020707;28;20534;-79
2022/06/09 05:32:53;;;;;;;1.13;0.90;;;18.70;99.90;;;;;;5019389;28;20491;-80
2022/06/09 05:35:22;;;;;;;0.80;0.77;;;18.80;99.90;;;;;;5021980;28;20440;-79
2022/06/09 05:46:09;;;;;;;2.00;0.87;;;18.80;99.90;;;;;;5017224;28;20460;-82
2022/06/09 05:48:38;;;;;;;3.07;0.80;;;18.70;99.90;;;;;;5024460;28;20463;-82
2022/06/09 05:51:06;;;;;;;0.70;0.70;;;18.70;99.90;;;;;;5016480;28;20463;-81
2022/06/09 05:53:36;;;;;;;1.60;0.93;;;18.80;99.90;;;;;;5019772;28;21057;-82
2022/06/09 05:56:06;;;;;;;1.27;0.80;;;18.80;99.90;;;;;;5023749;28;20456;-80
2022/06/09 05:58:35;;;;;;;1.43;0.80;;;18.70;99.90;;;;;;5019435;28;22124;-83
2022/06/09 06:01:05;;;;;;;0.80;0.80;;;18.70;99.90;;;;;;5024121;28;20471;-83
2022/06/09 06:03:34;;;;;;;1.23;0.70;;;18.70;99.90;;;;;;5020054;28;20482;-82
2022/06/09 06:08:50;;;;;;;5.70;1.50;;;18.80;99.90;;;;;;5024725;28;20861;-83
2022/06/09 06:11:19;;;;;;;2.57;1.10;;;18.90;99.90;;;;;;5014050;28;20476;-82
2022/06/09 06:13:47;;;;;;;2.80;1.00;;;19.00;99.90;;;;;;5023300;28;20484;-82
2022/06/09 06:16:15;;;;;;;1.43;1.00;;;19.00;99.90;;;;;;5019804;28;20468;-82
2022/06/09 06:19:03;;;;;;;1.50;1.07;;;18.90;99.90;;;;;;5020374;28;20452;-81
2022/06/09 06:21:31;;;;;;;1.93;0.80;;;19.00;99.90;;;;;;5022028;28;20472;-82
2022/06/09 06:24:01;;;;;;;2.20;0.90;;;19.00;99.90;;;;;;5023157;28;20516;-82
2022/06/09 06:26:29;;;;;;;1.80;0.83;;;19.00;99.90;;;;;;5021162;28;20471;-82
2022/06/09 06:28:57;;;;;;;1.70;0.70;;;19.00;99.90;;;;;;5018650;28;20475;-82
2022/06/09 06:31:26;;;;;;;3.73;1.53;;;19.00;99.90;;;;;;5022412;28;20465;-83
2022/06/09 06:33:55;;;;;;;1.33;0.90;;;19.00;99.90;;;;;;5022260;28;20453;-83
2022/06/09 06:36:23;;;;;;;1.53;1.00;;;19.00;99.90;;;;;;5017713;28;20224;-80
2022/06/09 06:38:51;;;;;;;2.17;0.90;;;19.00;99.90;;;;;;5023912;28;20464;-82
2022/06/09 06:41:21;;;;;;;1.20;1.10;;;19.00;99.90;;;;;;5026551;28;20448;-82
2022/06/09 06:43:50;;;;;;;4.40;0.90;;;19.00;99.90;;;;;;5027100;28;20480;-82
2022/06/09 06:46:19;;;;;;;0.93;0.77;;;19.10;99.90;;;;;;5028674;28;20461;-81
2022/06/09 06:48:48;;;;;;;0.73;0.70;;;19.20;99.90;;;;;;5025023;28;20460;-81
2022/06/09 06:51:16;;;;;;;1.10;0.80;;;19.20;99.90;;;;;;5020225;28;20453;-81
2022/06/09 06:53:45;;;;;;;0.97;0.70;;;19.10;99.90;;;;;;5023511;28;20986;-82
2022/06/09 06:56:14;;;;;;;1.50;0.60;;;19.20;99.90;;;;;;5027975;28;20457;-82
2022/06/09 06:58:43;;;;;;;2.13;0.80;;;19.30;99.90;;;;;;5022239;28;20461;-81
2022/06/09 07:01:12;;;;;;;1.50;0.60;;;19.30;99.90;;;;;;5019725;28;20917;-82
2022/06/09 07:03:40;;;;;;;1.73;0.70;;;19.30;99.90;;;;;;5016288;28;20476;-82
2022/06/09 07:06:09;;;;;;;1.93;1.10;;;19.20;99.90;;;;;;5014758;28;20545;-82
2022/06/09 07:08:38;;;;;;;2.50;0.70;;;19.20;99.90;;;;;;5023081;28;20452;-81
2022/06/09 07:11:08;;;;;;;2.13;0.70;;;19.20;99.90;;;;;;5024605;28;20944;-81
2022/06/09 07:13:37;;;;;;;1.93;0.80;;;19.30;99.90;;;;;;5020168;28;20479;-81
2022/06/09 07:16:08;;;;;;;2.60;0.97;;;19.30;99.90;;;;;;5028078;28;20452;-81
2022/06/09 07:18:56;;;;;;;0.93;0.63;;;19.30;99.90;;;;;;5036110;28;20564;-81
2022/06/09 07:21:25;;;;;;;1.70;1.27;;;19.30;99.90;;;;;;5032006;28;20460;-81
2022/06/09 07:23:53;;;;;;;1.10;0.70;;;19.40;99.90;;;;;;5030007;28;20554;-81
2022/06/09 07:26:22;;;;;;;1.00;0.70;;;19.50;99.90;;;;;;5019466;28;20468;-81
2022/06/09 07:28:51;;;;;;;2.10;0.73;;;19.50;99.90;;;;;;5026869;28;20929;-81
2022/06/09 07:31:21;;;;;;;1.70;0.90;;;19.60;99.90;;;;;;5035073;28;20464;-81
2022/06/09 07:33:50;;;;;;;3.60;0.60;;;19.60;99.90;;;;;;5034083;28;20580;-81
2022/06/09 07:36:21;;;;;;;2.57;0.70;;;19.60;99.90;;;;;;5027208;28;20479;-81
2022/06/09 07:38:49;;;;;;;2.60;0.90;;;19.70;99.90;;;;;;5027031;28;20999;-81
2022/06/09 07:41:20;;;;;;;1.33;0.90;;;19.70;99.90;;;;;;5032197;28;20506;-82
2022/06/09 07:43:59;;;;;;;1.60;0.70;;;19.70;99.90;;;;;;5027008;28;20472;-81
2022/06/09 07:46:30;;;;;;;0.80;0.77;;;19.70;99.90;;;;;;5016230;28;20465;-81
2022/06/09 07:48:59;;;;;;;2.60;0.70;;;19.70;99.90;;;;;;5023549;28;20453;-81
2022/06/09 07:51:28;;;;;;;3.30;0.90;;;19.80;99.90;;;;;;5021554;28;20460;-81
2022/06/09 07:53:57;;;;;;;1.17;1.03;;;19.80;99.90;;;;;;5028550;28;20842;-82
2022/06/09 07:56:26;;;;;;;1.30;0.70;;;19.80;99.90;;;;;;5018718;28;20464;-82
2022/06/09 07:58:55;;;;;;;1.43;1.10;;;19.80;99.90;;;;;;5022625;28;20593;-81
2022/06/09 08:01:24;;;;;;;1.23;0.70;;;19.80;99.90;;;;;;5013641;28;20551;-81
2022/06/09 08:03:55;;;;;;;2.30;0.80;;;19.80;99.90;;;;;;5024349;28;20482;-81
2022/06/09 08:06:23;;;;;;;0.67;0.60;;;19.90;99.90;;;;;;5027333;28;20623;-81
2022/06/09 08:08:56;;;;;;;1.10;0.67;;;19.90;99.90;;;;;;5028658;28;21037;-80
2022/06/09 08:11:27;;;;;;;1.47;0.73;;;20.00;99.90;;;;;;5031723;28;20487;-81
2022/06/09 08:13:56;;;;;;;1.47;0.90;;;19.90;99.90;;;;;;5030315;28;20489;-81
2022/06/09 08:16:25;;;;;;;1.83;1.73;;;19.90;99.90;;;;;;5034059;28;20452;-79
2022/06/09 08:18:55;;;;;;;2.13;0.70;;;19.90;99.90;;;;;;5033076;28;20456;-80
2022/06/09 08:21:24;;;;;;;1.10;0.70;;;19.90;99.90;;;;;;5030677;28;20948;-82
2022/06/09 08:24:10;;;;;;;1.67;0.90;;;20.00;99.90;;;;;;5021878;28;20835;-81
2022/06/09 08:26:39;;;;;;;3.20;0.67;;;20.00;99.90;;;;;;5027628;28;20531;-81
2022/06/09 08:29:08;;;;;;;1.23;0.60;;;20.00;99.90;;;;;;5023382;28;20460;-81
2022/06/09 08:31:36;;;;;;;1.33;0.60;;;20.00;99.90;;;;;;5026739;28;20452;-80
2022/06/09 08:34:06;;;;;;;1.90;0.57;;;20.00;99.90;;;;;;5022566;28;21074;-82
2022/06/09 08:36:35;;;;;;;1.13;0.60;;;20.10;99.90;;;;;;5021334;28;20464;-82
2022/06/09 08:39:03;;;;;;;0.80;0.63;;;20.20;99.90;;;;;;5023968;28;20465;-82
2022/06/09 08:41:40;;;;;;;2.47;0.90;;;20.20;99.90;;;;;;5023253;28;21368;-82
2022/06/09 08:44:18;;;;;;;3.77;0.70;;;20.30;99.90;;;;;;5017307;28;20464;-81
2022/06/09 08:46:51;;;;;;;1.90;1.43;;;20.30;99.90;;;;;;5023364;28;20785;-81
2022/06/09 08:49:53;;;;;;;0.70;0.70;;;20.30;99.90;;;;;;5027909;28;20459;-82
2022/06/09 08:52:34;;;;;;;0.60;0.60;;;20.40;99.90;;;;;;5021310;28;20456;-82
2022/06/09 08:55:17;;;;;;;0.50;0.50;;;20.40;99.90;;;;;;5022542;28;20906;-82
2022/06/09 08:57:46;;;;;;;1.70;0.70;;;20.50;99.90;;;;;;5018102;28;20457;-82
2022/06/09 09:00:18;;;;;;;0.60;0.47;;;20.50;99.90;;;;;;5018022;28;20461;-82
2022/06/09 09:02:52;;;;;;;3.17;0.63;;;20.50;99.90;;;;;;5026555;28;20464;-81
2022/06/09 09:05:27;;;;;;;1.27;0.50;;;20.60;99.90;;;;;;5024674;28;20463;-82
2022/06/09 09:08:07;;;;;;;0.83;0.60;;;20.60;99.90;;;;;;5021892;28;21187;-82
2022/06/09 09:11:02;;;;;;;1.13;0.60;;;20.70;99.90;;;;;;5027470;28;20464;-82
2022/06/09 09:13:40;;;;;;;1.00;0.60;;;20.60;99.90;;;;;;5012866;28;20583;-82
2022/06/09 09:16:16;;;;;;;1.17;0.60;;;20.70;99.90;;;;;;5015583;28;20474;-82
2022/06/09 09:18:53;;;;;;;0.67;0.67;;;20.70;99.90;;;;;;5023582;28;21153;-82
2022/06/09 09:21:52;;;;;;;1.37;0.67;;;20.70;99.90;;;;;;5015264;28;20451;-82
2022/06/09 09:24:29;;;;;;;1.20;0.67;;;20.70;99.90;;;;;;5019984;28;20935;-81
2022/06/09 09:27:08;;;;;;;1.70;0.70;;;20.80;99.90;;;;;;5028857;28;20464;-82
2022/06/09 09:29:47;;;;;;;7.30;0.60;;;20.80;99.90;;;;;;5037045;28;20472;-82
2022/06/09 09:32:20;;;;;;;1.57;0.80;;;20.80;99.90;;;;;;5023641;28;20462;-83
2022/06/09 09:34:51;;;;;;;0.60;0.60;;;20.80;99.90;;;;;;5018600;28;20479;-82
2022/06/09 09:37:26;;;;;;;0.73;0.60;;;21.00;99.90;;;;;;5021697;28;20462;-82
2022/06/09 09:39:58;;;;;;;0.60;0.60;;;21.00;99.90;;;;;;5013508;28;20536;-82
2022/06/09 09:42:29;;;;;;;1.37;0.60;;;21.10;99.90;;;;;;5019838;28;20452;-82
2022/06/09 09:45:14;;;;;;;0.50;0.50;;;21.10;99.90;;;;;;5018548;28;20538;-82
2022/06/09 09:47:47;;;;;;;0.70;0.60;;;21.00;99.90;;;;;;5021738;28;20461;-82
2022/06/09 09:50:25;;;;;;;1.07;0.60;;;21.00;99.90;;;;;;5018292;28;20556;-82
2022/06/09 09:53:02;;;;;;;0.77;0.60;;;21.00;99.90;;;;;;5026073;28;20480;-82
2022/06/09 09:55:38;;;;;;;1.73;1.07;;;21.00;99.90;;;;;;5015396;28;20472;-82
2022/06/09 09:58:25;;;;;;;0.50;0.50;;;21.00;99.90;;;;;;5020793;28;20457;-83
2022/06/09 10:00:56;;;;;;;0.50;0.50;;;21.00;99.90;;;;;;5018301;28;20466;-83
2022/06/09 10:09:17;;;;;;;2.17;0.67;;;21.10;99.90;;;;;;5020406;28;20460;-80
2022/06/09 10:11:55;;;;;;;0.70;0.70;;;21.10;99.90;;;;;;5010765;28;20456;-79
2022/06/09 10:14:52;;;;;;;0.70;0.70;;;21.10;99.90;;;;;;5013616;28;20848;-81
2022/06/09 10:17:26;;;;;;;0.97;0.57;;;21.10;99.90;;;;;;5019371;28;20539;-79
2022/06/09 10:20:26;;;;;;;0.60;0.60;;;21.10;99.90;;;;;;5015835;28;20531;-79
2022/06/09 10:23:19;;;;;;;1.90;0.70;;;21.20;99.90;;;;;;5018919;28;21028;-79
2022/06/09 10:25:54;;;;;;;0.90;0.50;;;21.30;99.90;;;;;;5023510;28;20444;-79
2022/06/09 10:28:33;;;;;;;1.27;0.60;;;21.30;99.90;;;;;;5025816;28;20455;-80
2022/06/09 10:31:07;;;;;;;0.60;0.50;;;21.50;99.90;;;;;;5015583;28;20460;-79
2022/06/09 10:33:41;;;;;;;1.07;0.60;;;21.50;99.90;;;;;;5022447;28;20483;-80
2022/06/09 10:36:16;;;;;;;0.50;0.50;;;21.60;99.90;;;;;;5009972;28;20454;-80
2022/06/09 10:38:48;;;;;;;2.03;0.70;;;21.70;99.90;;;;;;5008138;28;20456;-79
2022/06/09 10:41:40;;;;;;;2.03;0.70;;;21.70;99.90;;;;;;5022987;28;20935;-79
2022/06/09 10:44:15;;;;;;;0.70;0.60;;;21.80;99.90;;;;;;5019886;28;20505;-79
2022/06/09 10:55:14;;;;;;;1.07;0.60;;;21.80;99.90;;;;;;5014534;28;20460;-79
2022/06/09 10:55:37;;;;;;;1.13;0.43;;;21.80;99.90;;;;;;4952426;28;20485;-82
2022/06/09 10:58:12;;;;;;;2.87;0.90;;;21.80;99.90;;;;;;5002885;28;20488;-81
2022/06/09 11:00:45;;;;;;;1.50;0.60;;;21.90;99.90;;;;;;5018254;28;20451;-81
2022/06/09 11:03:20;;;;;;;1.37;0.80;;;21.90;99.90;;;;;;5016234;28;20464;-80
2022/06/09 11:06:02;;;;;;;1.03;0.60;;;21.90;99.90;;;;;;5019587;28;20457;-82
2022/06/09 11:08:40;;;;;;;1.10;0.80;;;21.90;99.90;;;;;;5018540;28;20452;-83
2022/06/09 11:11:18;;;;;;;1.20;0.90;;;21.90;99.90;;;;;;5020180;28;20462;-80
2022/06/09 11:14:00;;;;;;;0.93;0.90;;;21.80;99.90;;;;;;5029601;28;20483;-82
2022/06/09 11:16:38;;;;;;;0.70;0.57;;;21.80;99.90;;;;;;5018369;28;20462;-80
2022/06/09 11:19:29;;;;;;;3.43;1.23;;;21.80;99.90;;;;;;5015438;28;20459;-81
2022/06/09 11:22:08;;;;;;;1.17;0.73;;;21.80;99.90;;;;;;5019300;28;20455;-80
2022/06/09 11:24:43;;;;;;;1.37;0.67;;;21.70;99.90;;;;;;5011627;28;20515;-81
2022/06/09 11:27:25;;;;;;;0.80;0.60;;;21.80;99.90;;;;;;5017612;28;20462;-80
2022/06/09 11:30:06;;;;;;;1.50;0.83;;;21.80;99.90;;;;;;5020323;28;20463;-80
2022/06/09 11:32:41;;;;;;;1.37;0.90;;;21.80;99.90;;;;;;5016261;28;20463;-80
2022/06/09 11:35:24;;;;;;;1.00;0.60;;;21.90;99.90;;;;;;5016466;28;20479;-80
2022/06/09 11:38:08;;;;;;;2.13;0.60;;;21.90;99.90;;;;;;5017406;28;20461;-80
2022/06/09 11:40:44;;;;;;;1.33;0.60;;;22.00;99.90;;;;;;5016723;28;20460;-80
2022/06/09 11:43:33;;;;;;;0.67;0.67;;;22.00;99.90;;;;;;5019072;28;20477;-81
2022/06/09 11:46:06;;;;;;;2.93;1.43;;;22.10;99.90;;;;;;5017666;28;20983;-80
2022/06/09 11:48:45;;;;;;;4.40;0.87;;;22.10;99.90;;;;;;5013434;28;20552;-80
2022/06/09 11:51:17;;;;;;;0.90;0.60;;;22.10;99.90;;;;;;5015427;28;20517;-80
2022/06/09 11:53:48;;;;;;;0.70;0.60;;;22.10;99.90;;;;;;5021297;28;20530;-79
2022/06/09 11:56:40;;;;;;;1.10;0.70;;;22.10;99.90;;;;;;5015442;28;20567;-81
2022/06/09 11:59:19;;;;;;;0.70;0.63;;;22.20;99.90;;;;;;5016032;28;20475;-80
2022/06/09 12:02:26;;;;;;;1.47;0.60;;;22.30;99.90;;;;;;5022286;28;20476;-79
2022/06/09 12:05:23;;;;;;;1.43;0.70;;;22.30;99.90;;;;;;5024214;28;20474;-79
2022/06/09 12:08:16;;;;;;;0.80;0.60;;;22.30;99.90;;;;;;5016381;28;20470;-80
2022/06/09 12:11:09;;;;;;;2.10;0.83;;;22.20;99.90;;;;;;5028483;28;20459;-81
2022/06/09 12:13:54;;;;;;;1.90;1.00;;;22.30;99.90;;;;;;5019524;28;20475;-79
2022/06/09 12:16:26;;;;;;;0.63;0.63;;;22.30;99.90;;;;;;5017890;28;20834;-79
2022/06/09 12:19:19;;;;;;;0.67;0.67;;;22.30;99.90;;;;;;5018856;28;20459;-80
2022/06/09 12:21:51;;;;;;;2.20;1.00;;;22.40;99.90;;;;;;5017382;28;20457;-79
2022/06/09 12:24:58;;;;;;;1.00;0.70;;;22.40;99.90;;;;;;5010072;28;20499;-80
2022/06/09 12:27:51;;;;;;;3.70;0.70;;;22.40;99.90;;;;;;5018851;28;21045;-80
2022/06/09 12:30:27;;;;;;;0.80;0.60;;;22.40;99.90;;;;;;5008975;28;20486;-79
2022/06/09 12:33:30;;;;;;;1.40;0.80;;;22.40;99.90;;;;;;5021597;28;20977;-79
2022/06/09 12:36:04;;;;;;;0.60;0.53;;;22.40;99.90;;;;;;5021325;28;20468;-80
2022/06/09 12:38:37;;;;;;;1.40;0.63;;;22.50;99.90;;;;;;5019118;28;20467;-80
2022/06/09 12:41:24;;;;;;;0.70;0.60;;;22.60;99.90;;;;;;5018856;28;20456;-80
2022/06/09 12:44:00;;;;;;;1.10;0.60;;;22.60;99.90;;;;;;5016545;28;20485;-78
2022/06/09 12:46:30;;;;;;;0.67;0.67;;;22.60;99.90;;;;;;5012145;28;20481;-79
2022/06/09 12:48:59;;;;;;;1.00;0.60;;;22.60;99.90;;;;;;5018629;28;20464;-78
2022/06/09 12:51:31;;;;;;;1.10;0.60;;;22.70;99.90;;;;;;5022411;28;20991;-79
2022/06/09 12:54:03;;;;;;;4.73;0.80;;;22.60;99.90;;;;;;5011433;28;20480;-80
2022/06/09 12:56:38;;;;;;;0.60;0.60;;;22.60;99.90;;;;;;5017198;28;20479;-80
2022/06/09 12:59:18;;;;;;;3.90;0.60;;;22.70;99.90;;;;;;5020582;28;20452;-80
2022/06/09 13:02:00;;;;;;;0.67;0.67;;;22.70;99.90;;;;;;5018808;28;20465;-81
2022/06/09 13:04:30;;;;;;;1.83;0.70;;;22.70;99.90;;;;;;5014024;28;20580;-81
2022/06/09 13:07:01;;;;;;;0.77;0.70;;;22.70;99.90;;;;;;5020035;28;20539;-80
2022/06/09 13:09:32;;;;;;;0.60;0.60;;;22.70;99.90;;;;;;5019846;28;20466;-81
2022/06/09 13:14:51;;;;;;;0.77;0.70;;;22.80;99.90;;;;;;5016024;28;21072;-81
2022/06/09 13:17:25;;;;;;;0.67;0.67;;;22.80;99.90;;;;;;5021248;28;20476;-81
2022/06/09 13:19:57;;;;;;;4.03;0.90;;;22.80;99.90;;;;;;5016065;28;20460;-82
2022/06/09 13:22:28;;;;;;;0.83;0.60;;;22.80;99.90;;;;;;5025916;28;20448;-81
2022/06/09 13:24:57;;;;;;;2.07;0.80;;;22.80;99.90;;;;;;5033017;28;20456;-80
2022/06/09 13:27:29;;;;;;;3.07;1.03;;;22.80;99.90;;;;;;5013523;28;21075;-79
2022/06/09 13:30:04;;;;;;;0.70;0.70;;;22.80;99.90;;;;;;5019652;28;20866;-80
2022/06/09 13:32:40;;;;;;;1.00;0.70;;;22.80;99.90;;;;;;5020062;28;20459;-80
2022/06/09 13:35:29;;;;;;;1.13;0.70;;;22.70;99.90;;;;;;5020195;28;20480;-79
2022/06/09 13:38:07;;;;;;;0.80;0.70;;;22.80;99.90;;;;;;5013845;28;20468;-80
2022/06/09 13:40:45;;;;;;;1.73;0.77;;;22.70;99.90;;;;;;5018045;28;20463;-80
2022/06/09 13:43:26;;;;;;;2.33;0.80;;;22.70;99.90;;;;;;5029022;28;20518;-79
2022/06/09 13:46:05;;;;;;;1.17;0.60;;;22.70;99.90;;;;;;5021884;28;20469;-79
2022/06/09 13:48:47;;;;;;;1.23;0.60;;;22.70;99.90;;;;;;5016369;28;20452;-79